createdAt,value
2018-10-11T00:01:28.846Z,24.70
2018-10-11T00:03:58.001Z,26.60
2018-10-11T00:06:27.151Z,27.87
2018-10-11T00:08:56.576Z,26.90
2018-10-11T00:11:25.777Z,25.97
2018-10-11T00:13:54.911Z,28.43
2018-10-11T00:16:27.214Z,24.63
2018-10-11T00:18:56.347Z,25.27
2018-10-11T00:21:29.952Z,26.77
2018-10-11T00:23:59.360Z,23.20
2018-10-11T00:26:31.950Z,25.03
2018-10-11T00:29:01.073Z,23.27
2018-10-11T00:31:36.083Z,22.87
2018-10-11T00:34:05.215Z,25.07
2018-10-11T00:36:39.290Z,25.03
2018-10-11T00:39:09.143Z,24.43
2018-10-11T00:41:40.468Z,26.07
2018-10-11T00:44:10.051Z,25.47
2018-10-11T00:46:43.939Z,28.33
2018-10-11T00:49:13.161Z,24.93
2018-10-11T00:51:46.080Z,24.83
2018-10-11T00:54:15.263Z,27.37
2018-10-11T00:56:56.683Z,23.63
2018-10-11T00:59:25.846Z,25.73
2018-10-11T01:01:55.286Z,23.53
2018-10-11T01:04:24.411Z,26.83
2018-10-11T01:06:53.307Z,23.63
2018-10-11T01:09:22.757Z,23.97
2018-10-11T01:11:56.422Z,23.40
2018-10-11T01:14:25.560Z,26.13
2018-10-11T01:17:06.570Z,23.43
2018-10-11T01:19:35.252Z,22.00
2018-10-11T01:22:03.929Z,23.53
2018-10-11T01:24:32.858Z,20.43
2018-10-11T01:27:05.473Z,18.57
2018-10-11T01:29:34.893Z,21.37
2018-10-11T01:32:10.857Z,22.00
2018-10-11T01:34:39.499Z,19.87
2018-10-11T01:37:13.838Z,21.57
2018-10-11T01:39:43.085Z,22.23
2018-10-11T01:42:15.808Z,22.00
2018-10-11T01:44:44.794Z,20.97
2018-10-11T01:47:25.910Z,22.80
2018-10-11T01:49:55.144Z,23.40
2018-10-11T01:52:24.421Z,24.87
2018-10-11T01:54:53.127Z,25.00
2018-10-11T01:57:23.015Z,21.93
2018-10-11T01:59:52.179Z,24.97
2018-10-11T02:02:25.465Z,22.83
2018-10-11T02:04:54.880Z,24.03
2018-10-11T02:07:36.334Z,22.97
2018-10-11T02:10:05.310Z,24.87
2018-10-11T02:12:35.127Z,26.97
2018-10-11T02:15:04.319Z,24.07
2018-10-11T02:17:33.746Z,20.80
2018-10-11T02:20:02.455Z,26.83
2018-10-11T02:22:37.257Z,23.63
2018-10-11T02:25:06.807Z,19.17
2018-10-11T02:27:40.003Z,21.20
2018-10-11T02:30:09.305Z,22.63
2018-10-11T02:32:41.519Z,22.27
2018-10-11T02:35:11.380Z,21.50
2018-10-11T02:37:52.784Z,20.27
2018-10-11T02:40:21.621Z,19.33
2018-10-11T02:42:50.664Z,22.43
2018-10-11T02:45:20.105Z,21.07
2018-10-11T02:47:52.827Z,19.40
2018-10-11T02:50:22.506Z,22.03
2018-10-11T02:52:53.498Z,20.33
2018-10-11T02:55:25.345Z,22.43
2018-10-11T02:58:06.879Z,20.80
2018-10-11T03:00:36.248Z,19.77
2018-10-11T03:03:07.269Z,20.23
2018-10-11T03:05:37.023Z,21.33
2018-10-11T03:08:06.742Z,21.33
2018-10-11T03:10:36.307Z,24.87
2018-10-11T03:13:08.363Z,24.50
2018-10-11T03:15:37.795Z,21.77
2018-10-11T03:18:08.249Z,21.57
2018-10-11T03:20:37.314Z,18.80
2018-10-11T03:23:11.510Z,20.20
2018-10-11T03:25:41.779Z,21.20
2018-10-11T03:28:16.404Z,24.30
2018-10-11T03:30:45.599Z,20.10
2018-10-11T03:33:15.538Z,23.53
2018-10-11T03:35:45.225Z,21.73
2018-10-11T03:38:19.577Z,21.20
2018-10-11T03:40:48.719Z,22.77
2018-10-11T03:43:21.342Z,22.67
2018-10-11T03:45:50.287Z,24.03
2018-10-11T03:48:22.676Z,24.83
2018-10-11T03:50:51.346Z,23.97
2018-10-11T03:53:25.396Z,25.90
2018-10-11T03:55:54.543Z,24.63
2018-10-11T03:58:35.657Z,23.13
2018-10-11T04:01:04.642Z,23.97
2018-10-11T04:03:34.135Z,22.20
2018-10-11T04:06:03.727Z,26.67
2018-10-11T04:08:32.684Z,25.83
2018-10-11T04:11:02.062Z,24.63
2018-10-11T04:13:35.493Z,26.03
2018-10-11T04:16:05.195Z,21.23
2018-10-11T04:18:47.262Z,22.93
2018-10-11T04:21:16.519Z,25.77
2018-10-11T04:23:45.199Z,25.43
2018-10-11T04:26:14.811Z,26.83
2018-10-11T04:28:43.828Z,25.10
2018-10-11T04:31:12.987Z,34.53
2018-10-11T04:33:47.181Z,26.03
2018-10-11T04:36:16.757Z,27.23
2018-10-11T04:38:49.278Z,25.87
2018-10-11T04:41:18.620Z,26.47
2018-10-11T04:43:51.154Z,24.77
2018-10-11T04:46:20.294Z,24.30
2018-10-11T04:48:54.619Z,24.30
2018-10-11T04:51:24.284Z,24.50
2018-10-11T04:53:57.743Z,25.57
2018-10-11T04:56:28.132Z,24.37
2018-10-11T04:59:01.191Z,26.43
2018-10-11T05:01:30.359Z,27.17
2018-10-11T05:04:02.194Z,25.30
2018-10-11T05:06:32.123Z,22.73
2018-10-11T05:09:06.872Z,23.23
2018-10-11T05:11:36.805Z,25.57
2018-10-11T05:14:09.070Z,24.30
2018-10-11T05:16:38.396Z,23.30
2018-10-11T05:19:13.030Z,25.80
2018-10-11T05:21:42.495Z,22.73
2018-10-11T05:24:15.036Z,24.57
2018-10-11T05:26:44.339Z,26.93
2018-10-11T05:29:17.326Z,26.17
2018-10-11T05:31:47.154Z,23.83
2018-10-11T05:34:19.699Z,24.07
2018-10-11T05:36:48.529Z,25.40
2018-10-11T05:39:21.799Z,25.80
2018-10-11T05:41:51.883Z,29.67
2018-10-11T05:44:24.497Z,22.90
2018-10-11T05:46:54.708Z,24.97
2018-10-11T05:49:27.222Z,27.43
2018-10-11T05:51:55.976Z,25.57
2018-10-11T05:54:37.534Z,22.93
2018-10-11T05:57:06.511Z,24.70
2018-10-11T05:59:35.795Z,26.80
2018-10-11T06:02:05.404Z,23.17
2018-10-11T06:04:34.094Z,25.27
2018-10-11T06:07:03.795Z,24.97
2018-10-11T06:09:39.091Z,25.80
2018-10-11T06:12:08.128Z,24.80
2018-10-11T06:14:50.359Z,24.30
2018-10-11T06:17:19.938Z,27.73
2018-10-11T06:19:50.123Z,27.87
2018-10-11T06:22:18.809Z,28.03
2018-10-11T06:24:48.585Z,27.47
2018-10-11T06:27:17.394Z,28.40
2018-10-11T06:29:50.700Z,28.20
2018-10-11T06:32:21.319Z,29.07
2018-10-11T06:34:53.445Z,30.33
2018-10-11T06:37:22.863Z,27.60
2018-10-11T06:39:56.094Z,26.13
2018-10-11T06:42:25.582Z,23.13
2018-10-11T06:45:00.064Z,25.93
2018-10-11T06:47:30.152Z,22.93
2018-10-11T06:50:04.478Z,27.40
2018-10-11T06:52:34.310Z,25.30
2018-10-11T06:55:06.764Z,25.77
2018-10-11T06:57:35.617Z,21.83
2018-10-11T07:00:08.891Z,21.77
2018-10-11T07:02:38.121Z,26.47
2018-10-11T07:05:19.855Z,24.67
2018-10-11T07:07:48.893Z,22.60
2018-10-11T07:10:18.146Z,18.40
2018-10-11T07:12:46.892Z,20.13
2018-10-11T07:15:20.101Z,15.97
2018-10-11T07:17:49.411Z,17.10
2018-10-11T07:20:19.303Z,16.90
2018-10-11T07:22:48.794Z,21.47
2018-10-11T07:25:22.528Z,15.73
2018-10-11T07:27:51.278Z,14.37
2018-10-11T07:30:23.571Z,15.23
2018-10-11T07:32:52.812Z,13.23
2018-10-11T07:35:34.113Z,15.10
2018-10-11T07:38:03.055Z,12.17
2018-10-11T07:40:32.357Z,11.37
2018-10-11T07:43:01.004Z,10.33
2018-10-11T07:45:32.500Z,13.20
2018-10-11T07:48:01.676Z,13.73
2018-10-11T07:50:33.205Z,13.00
2018-10-11T07:53:02.209Z,17.73
2018-10-11T07:55:34.904Z,16.20
2018-10-11T07:58:04.095Z,17.07
2018-10-11T08:00:45.567Z,18.30
2018-10-11T08:03:14.963Z,16.27
2018-10-11T08:05:44.663Z,18.93
2018-10-11T08:08:13.333Z,20.43
2018-10-11T08:10:45.589Z,20.60
2018-10-11T08:13:15.042Z,21.30
2018-10-11T08:15:47.845Z,19.27
2018-10-11T08:18:17.116Z,22.50
2018-10-11T08:20:49.405Z,19.80
2018-10-11T08:23:18.588Z,20.87
2018-10-11T08:25:52.325Z,21.60
2018-10-11T08:30:42.147Z,22.80
2018-10-11T08:33:11.028Z,20.57
2018-10-11T08:35:39.976Z,18.03
2018-10-11T08:38:09.393Z,19.47
2018-10-11T08:40:38.454Z,20.00
2018-10-11T08:43:08.056Z,22.80
2018-10-11T08:45:37.415Z,22.73
2018-10-11T08:48:07.140Z,18.90
2018-10-11T08:50:36.247Z,18.93
2018-10-11T08:53:08.183Z,20.60
2018-10-11T08:55:37.435Z,22.00
2018-10-11T08:58:15.006Z,22.10
2018-10-11T09:00:43.752Z,20.33
2018-10-11T09:03:14.041Z,22.53
2018-10-11T09:05:43.039Z,21.83
2018-10-11T09:08:14.638Z,18.07
2018-10-11T09:10:43.396Z,19.27
2018-10-11T09:13:17.574Z,19.00
2018-10-11T09:15:46.262Z,18.40
2018-10-11T09:18:20.395Z,19.73
2018-10-11T09:20:49.559Z,21.17
2018-10-11T09:23:23.184Z,19.37
2018-10-11T09:25:52.726Z,18.67
2018-10-11T09:28:25.383Z,19.40
2018-10-11T09:30:54.349Z,19.57
2018-10-11T09:33:35.646Z,19.83
2018-10-11T09:36:05.582Z,16.80
2018-10-11T09:38:35.432Z,19.07
2018-10-11T09:41:08.195Z,16.60
2018-10-11T09:43:37.481Z,16.87
2018-10-11T09:46:06.685Z,16.87
2018-10-11T09:48:36.338Z,14.33
2018-10-11T09:51:05.480Z,14.57
2018-10-11T09:53:39.927Z,16.83
2018-10-11T09:56:09.397Z,13.13
2018-10-11T09:58:39.875Z,12.40
2018-10-11T10:01:14.079Z,11.87
2018-10-11T10:03:43.880Z,13.07
2018-10-11T10:06:13.157Z,13.70
2018-10-11T10:08:46.255Z,12.57
2018-10-11T10:11:15.829Z,14.93
2018-10-11T10:13:49.002Z,14.03
2018-10-11T10:16:18.239Z,15.23
2018-10-11T10:18:50.827Z,14.50
2018-10-11T10:21:20.065Z,12.40
2018-10-11T10:23:53.461Z,14.27
2018-10-11T10:26:22.468Z,12.27
2018-10-11T10:28:56.210Z,11.77
2018-10-11T10:31:25.413Z,12.30
2018-10-11T10:33:58.793Z,14.83
2018-10-11T10:36:28.311Z,13.27
2018-10-11T10:39:02.464Z,12.73
2018-10-11T10:41:31.931Z,9.50
2018-10-11T10:44:04.435Z,11.33
2018-10-11T10:46:34.317Z,11.47
2018-10-11T10:49:07.552Z,10.30
2018-10-11T10:51:36.809Z,12.10
2018-10-11T10:54:11.751Z,11.67
2018-10-11T10:56:40.459Z,18.20
2018-10-11T10:59:14.764Z,12.03
2018-10-11T11:01:43.952Z,11.57
2018-10-11T11:04:16.354Z,11.97
2018-10-11T11:06:45.632Z,11.77
2018-10-11T11:11:41.499Z,13.13
2018-10-11T11:14:11.806Z,11.40
2018-10-11T11:16:41.295Z,10.80
2018-10-11T11:19:11.519Z,12.47
2018-10-11T11:21:40.272Z,13.40
2018-10-11T11:24:09.472Z,11.13
2018-10-11T11:26:45.656Z,12.20
2018-10-11T11:29:34.728Z,10.60
2018-10-11T11:35:57.740Z,11.70
2018-10-11T11:38:35.279Z,18.97
2018-10-11T11:41:04.012Z,11.37
2018-10-11T11:43:36.427Z,8.93
2018-10-11T11:46:08.193Z,9.73
2018-10-11T11:48:37.795Z,11.87
2018-10-11T11:51:07.634Z,8.90
2018-10-11T11:53:41.465Z,11.37
2018-10-11T11:56:10.963Z,9.57
2018-10-11T11:58:43.539Z,12.13
2018-10-11T12:01:13.395Z,11.13
2018-10-11T12:03:48.922Z,10.67
2018-10-11T12:06:17.597Z,10.53
2018-10-11T12:08:50.159Z,12.03
2018-10-11T12:11:19.359Z,11.73
2018-10-11T12:13:52.350Z,12.33
2018-10-11T12:16:21.897Z,11.10
2018-10-11T12:18:55.093Z,13.13
2018-10-11T12:21:24.183Z,9.27
2018-10-11T12:23:58.310Z,11.27
2018-10-11T12:26:27.033Z,12.70
2018-10-11T12:29:00.609Z,8.90
2018-10-11T12:31:29.795Z,8.60
2018-10-11T12:34:04.202Z,7.20
2018-10-11T12:36:33.458Z,7.67
2018-10-11T12:39:15.194Z,5.40
2018-10-11T12:41:44.588Z,7.33
2018-10-11T12:44:17.155Z,6.83
2018-10-11T12:46:46.839Z,6.57
2018-10-11T12:49:15.585Z,6.87
2018-10-11T12:51:45.818Z,8.23
2018-10-11T12:54:16.575Z,6.97
2018-10-11T12:56:45.377Z,7.77
2018-10-11T12:59:18.392Z,12.47
2018-10-11T13:01:47.995Z,11.97
2018-10-11T13:04:20.592Z,8.63
2018-10-11T13:06:49.853Z,6.77
2018-10-11T13:09:23.506Z,8.87
2018-10-11T13:11:52.229Z,7.53
2018-10-11T13:14:25.609Z,8.70
2018-10-11T13:16:54.856Z,6.07
2018-10-11T13:19:27.608Z,6.93
2018-10-11T13:21:57.104Z,6.47
2018-10-11T13:24:41.754Z,7.83
2018-10-11T13:27:08.089Z,5.60
2018-10-11T13:29:37.272Z,5.20
2018-10-11T13:32:06.504Z,6.57
2018-10-11T13:34:36.070Z,7.17
2018-10-11T13:37:04.771Z,8.87
2018-10-11T13:39:37.799Z,12.73
2018-10-11T13:42:06.929Z,11.93
2018-10-11T13:44:48.433Z,14.03
2018-10-11T13:47:17.661Z,14.23
2018-10-11T13:49:46.348Z,13.17
2018-10-11T13:52:18.229Z,13.10
2018-10-11T13:54:45.552Z,12.37
2018-10-11T13:57:14.943Z,12.33
2018-10-11T13:59:48.604Z,9.70
2018-10-11T14:02:18.263Z,13.47
2018-10-11T14:04:50.375Z,13.77
2018-10-11T14:07:19.893Z,13.13
2018-10-11T14:09:53.873Z,12.97
2018-10-11T14:12:22.541Z,14.53
2018-10-11T14:14:58.289Z,15.37
2018-10-11T14:17:27.475Z,16.87
2018-10-11T14:19:59.393Z,17.03
2018-10-11T14:22:28.598Z,20.43
2018-10-11T14:25:01.738Z,21.10
2018-10-11T14:27:30.400Z,14.97
2018-10-11T14:30:06.283Z,13.83
2018-10-11T14:32:36.147Z,13.77
2018-10-11T14:35:18.145Z,14.37
2018-10-11T14:37:47.394Z,15.13
2018-10-11T14:40:16.116Z,13.17
2018-10-11T14:42:44.811Z,17.00
2018-10-11T14:45:14.986Z,15.00
2018-10-11T14:47:44.516Z,17.83
2018-10-11T14:50:17.106Z,19.23
2018-10-11T14:52:46.108Z,16.53
2018-10-11T14:55:19.495Z,24.47
2018-10-11T14:57:48.752Z,14.50
2018-10-11T15:00:20.844Z,17.47
2018-10-11T15:02:49.640Z,15.07
2018-10-11T15:05:22.866Z,13.83
2018-10-11T15:07:52.091Z,15.90
2018-10-11T15:10:26.106Z,14.77
2018-10-11T15:12:54.946Z,20.20
2018-10-11T15:15:29.721Z,17.37
2018-10-11T15:17:59.006Z,13.97
2018-10-11T15:20:31.499Z,15.90
2018-10-11T15:23:00.601Z,18.67
2018-10-11T15:25:41.936Z,12.77
2018-10-11T15:28:11.276Z,17.33
2018-10-11T15:30:40.888Z,16.20
2018-10-11T15:33:09.575Z,13.37
2018-10-11T15:35:40.715Z,15.50
2018-10-11T15:38:10.338Z,17.30
2018-10-11T15:40:43.141Z,14.57
2018-10-11T15:43:11.883Z,14.97
2018-10-11T15:45:43.884Z,17.17
2018-10-11T15:48:13.318Z,15.60
2018-10-11T15:50:50.969Z,13.03
2018-10-11T15:53:20.468Z,15.90
2018-10-11T15:55:49.195Z,13.57
2018-10-11T15:58:19.886Z,13.40
2018-10-11T16:00:53.617Z,14.53
2018-10-11T16:03:23.368Z,16.23
2018-10-11T16:05:56.364Z,12.50
2018-10-11T16:08:28.890Z,14.20
2018-10-11T16:10:59.007Z,12.13
2018-10-11T16:13:28.311Z,15.07
2018-10-11T16:15:59.943Z,12.23
2018-10-11T16:18:28.671Z,12.83
2018-10-11T16:21:01.840Z,14.50
2018-10-11T16:23:31.012Z,11.63
2018-10-11T16:26:05.739Z,14.13
2018-10-11T16:28:35.166Z,10.87
2018-10-11T16:31:04.349Z,13.80
2018-10-11T16:33:33.129Z,13.93
2018-10-11T16:36:02.389Z,14.40
2018-10-11T16:38:32.025Z,16.57
2018-10-11T16:41:00.715Z,10.77
2018-10-11T16:45:54.284Z,16.40
2018-10-11T16:48:24.429Z,13.87
2018-10-11T16:50:54.103Z,12.00
2018-10-11T16:53:23.164Z,10.30
2018-10-11T16:55:52.361Z,13.27
2018-10-11T16:58:43.428Z,13.83
2018-10-11T17:01:13.096Z,11.73
2018-10-11T17:03:42.539Z,11.00
2018-10-11T17:06:15.600Z,9.63
2018-10-11T17:08:44.741Z,10.97
2018-10-11T17:11:18.351Z,9.57
2018-10-11T17:13:47.342Z,11.97
2018-10-11T17:16:17.045Z,12.53
2018-10-11T17:18:45.782Z,12.33
2018-10-11T17:21:14.569Z,14.03
2018-10-11T17:23:44.107Z,12.83
2018-10-11T17:26:12.807Z,11.77
2018-10-11T17:28:42.065Z,15.67
2018-10-11T17:31:11.571Z,9.50
2018-10-11T17:33:41.596Z,11.80
2018-10-11T17:36:10.286Z,18.00
2018-10-11T17:38:46.700Z,13.30
2018-10-11T17:41:15.906Z,14.93
2018-10-11T17:43:48.773Z,11.80
2018-10-11T17:46:18.714Z,15.13
2018-10-11T17:48:50.321Z,14.57
2018-10-11T17:51:22.123Z,10.27
2018-10-11T17:53:54.364Z,13.03
2018-10-11T17:56:23.557Z,9.93
2018-10-11T17:58:56.632Z,13.53
2018-10-11T18:01:26.089Z,14.17
2018-10-11T18:03:59.061Z,14.00
2018-10-11T18:06:28.267Z,14.47
2018-10-11T18:09:01.711Z,13.70
2018-10-11T18:11:30.474Z,12.23
2018-10-11T18:14:04.604Z,11.43
2018-10-11T18:16:33.787Z,13.63
2018-10-11T18:19:16.696Z,10.07
2018-10-11T18:21:45.945Z,14.80
2018-10-11T18:24:15.498Z,10.27
2018-10-11T18:26:44.862Z,13.50
2018-10-11T18:29:14.099Z,15.50
2018-10-11T18:31:43.273Z,12.37
2018-10-11T18:34:15.332Z,12.90
2018-10-11T18:36:44.812Z,13.67
2018-10-11T18:39:33.376Z,12.10
2018-10-11T18:42:02.491Z,13.73
2018-10-11T18:44:31.720Z,17.53
2018-10-11T18:47:00.936Z,12.73
2018-10-11T18:49:29.881Z,12.47
2018-10-11T18:51:59.017Z,13.37
2018-10-11T18:54:28.362Z,14.27
2018-10-11T18:56:57.300Z,15.20
2018-10-11T18:59:29.493Z,10.57
2018-10-11T19:01:59.451Z,12.30
2018-10-11T19:04:29.929Z,14.93
2018-10-11T19:06:59.136Z,11.03
2018-10-11T19:09:32.370Z,9.57
2018-10-11T19:12:01.824Z,11.53
2018-10-11T19:14:34.705Z,11.07
2018-10-11T19:19:42.359Z,11.67
2018-10-11T19:22:12.020Z,10.23
2018-10-11T19:24:41.201Z,12.33
2018-10-11T19:27:10.663Z,14.43
2018-10-11T19:29:46.000Z,14.17
2018-10-11T19:32:15.193Z,11.00
2018-10-11T19:34:45.208Z,12.33
2018-10-11T19:37:14.368Z,9.73
2018-10-11T19:39:47.798Z,13.30
2018-10-11T19:42:16.755Z,11.67
2018-10-11T19:44:54.851Z,13.03
2018-10-11T19:47:23.594Z,12.13
2018-10-11T19:49:52.559Z,12.83
2018-10-11T19:52:21.813Z,12.23
2018-10-11T19:54:54.596Z,9.90
2018-10-11T19:57:24.420Z,11.87
2018-10-11T19:59:57.298Z,12.57
2018-10-11T20:02:26.487Z,10.67
2018-10-11T20:05:01.517Z,12.30
2018-10-11T20:07:30.672Z,11.07
2018-10-11T20:10:12.208Z,11.97
2018-10-11T20:12:40.887Z,11.73
2018-10-11T20:15:09.862Z,11.70
2018-10-11T20:17:39.248Z,12.53
2018-10-11T20:20:20.187Z,12.17
2018-10-11T20:22:49.608Z,10.80
2018-10-11T20:25:18.765Z,11.33
2018-10-11T20:27:47.622Z,12.20
2018-10-11T20:30:17.164Z,10.87
2018-10-11T20:32:46.487Z,14.10
2018-10-11T20:35:19.797Z,10.23
2018-10-11T20:37:50.062Z,15.63
2018-10-11T20:40:21.109Z,14.43
2018-10-11T20:42:50.225Z,12.70
2018-10-11T20:45:24.292Z,11.97
2018-10-11T20:47:53.824Z,14.57
2018-10-11T20:50:28.087Z,13.10
2018-10-11T20:52:57.583Z,12.20
2018-10-11T20:55:29.987Z,11.50
2018-10-11T20:57:59.137Z,11.17
2018-10-11T21:00:30.728Z,13.27
2018-10-11T21:03:00.084Z,12.77
2018-10-11T21:05:36.523Z,12.93
2018-10-11T21:08:06.056Z,11.87
2018-10-11T21:10:36.864Z,15.00
2018-10-11T21:13:06.338Z,12.17
2018-10-11T21:15:40.209Z,11.43
2018-10-11T21:18:09.173Z,11.40
2018-10-11T21:20:44.052Z,12.27
2018-10-11T21:23:12.730Z,11.27
2018-10-11T21:25:45.871Z,12.40
2018-10-11T21:28:15.223Z,10.33
2018-10-11T21:30:47.640Z,11.80
2018-10-11T21:33:17.634Z,11.53
2018-10-11T21:35:51.781Z,11.77
2018-10-11T21:38:20.593Z,12.07
2018-10-11T21:40:56.690Z,13.33
2018-10-11T21:43:25.963Z,10.77
2018-10-11T21:45:58.697Z,11.27
2018-10-11T21:48:27.466Z,10.30
2018-10-11T21:51:00.972Z,10.50
2018-10-11T21:53:29.627Z,13.20
2018-10-11T21:56:03.613Z,10.93
2018-10-11T21:58:32.562Z,13.47
2018-10-11T22:01:11.804Z,12.97
2018-10-11T22:03:40.483Z,12.87
2018-10-11T22:06:11.552Z,13.30
2018-10-11T22:08:40.715Z,12.00
2018-10-11T22:11:13.035Z,10.90
2018-10-11T22:13:42.383Z,12.57
2018-10-11T22:16:16.229Z,10.23
2018-10-11T22:18:45.153Z,10.77
2018-10-11T22:21:18.577Z,11.30
2018-10-11T22:23:47.756Z,12.93
2018-10-11T22:26:20.857Z,13.73
2018-10-11T22:28:49.999Z,11.40
2018-10-11T22:31:22.811Z,12.03
2018-10-11T22:33:52.680Z,13.97
2018-10-11T22:36:25.536Z,11.53
2018-10-11T22:38:54.734Z,12.20
2018-10-11T22:41:28.124Z,13.23
2018-10-11T22:43:57.668Z,11.93
2018-10-11T22:46:31.044Z,12.70
2018-10-11T22:48:59.727Z,14.80
2018-10-11T22:51:33.572Z,11.53
2018-10-11T22:54:02.863Z,13.40
2018-10-11T22:56:37.079Z,14.43
2018-10-11T22:59:06.136Z,12.67
2018-10-11T23:01:39.771Z,11.90
2018-10-11T23:04:08.969Z,12.03
2018-10-11T23:06:42.855Z,12.97
2018-10-11T23:09:12.026Z,14.63
2018-10-11T23:11:45.996Z,15.23
2018-10-11T23:14:15.483Z,16.83
2018-10-11T23:16:50.740Z,13.87
2018-10-11T23:19:19.920Z,14.33
2018-10-11T23:21:52.299Z,14.10
2018-10-11T23:24:21.554Z,14.60
2018-10-11T23:26:54.452Z,12.53
2018-10-11T23:31:59.224Z,15.67
2018-10-11T23:34:28.893Z,14.37
2018-10-11T23:37:00.666Z,14.77
2018-10-11T23:39:29.602Z,13.93
2018-10-11T23:42:03.220Z,11.83
2018-10-11T23:44:32.395Z,10.83
2018-10-11T23:47:08.712Z,12.17
2018-10-11T23:49:37.916Z,12.80
2018-10-11T23:52:20.099Z,7.20
2018-10-11T23:54:49.512Z,9.23
2018-10-11T23:57:18.207Z,9.93
2018-10-11T23:59:47.343Z,8.87
